createdAt,value
2018-08-11T09:45:33.137Z,9.70
2018-08-11T09:48:01.950Z,4.23
2018-08-11T09:50:30.565Z,4.33
2018-08-11T09:52:59.311Z,3.63
2018-08-11T09:55:28.921Z,5.00
2018-08-11T09:57:57.601Z,8.70
2018-08-11T10:00:31.409Z,7.60
2018-08-11T10:03:00.106Z,7.63
2018-08-11T10:05:28.807Z,6.67
2018-08-11T10:07:57.599Z,5.80
2018-08-11T10:10:26.361Z,6.30
2018-08-11T10:12:55.003Z,6.17
2018-08-11T10:15:23.703Z,5.63
2018-08-11T10:17:52.337Z,5.90
2018-08-11T10:20:21.008Z,6.03
2018-08-11T10:22:49.648Z,9.10
2018-08-11T10:25:18.310Z,4.17
2018-08-11T10:27:46.948Z,4.80
2018-08-11T10:30:15.650Z,5.40
2018-08-11T10:32:44.285Z,3.90
2018-08-11T10:35:12.960Z,7.23
2018-08-11T10:37:41.650Z,5.77
2018-08-11T10:40:10.457Z,3.27
2018-08-11T10:42:39.328Z,3.70
2018-08-11T10:45:07.965Z,5.83
2018-08-11T10:47:37.098Z,4.33
2018-08-11T10:50:06.052Z,4.73
2018-08-11T10:52:34.737Z,4.47
2018-08-11T10:55:03.426Z,3.90
2018-08-11T10:57:32.062Z,3.87
2018-08-11T11:00:00.682Z,4.47
2018-08-11T11:02:29.373Z,4.27
2018-08-11T11:04:58.026Z,5.97
2018-08-11T11:07:26.648Z,4.83
2018-08-11T11:09:55.454Z,4.03
2018-08-11T11:12:24.357Z,3.47
2018-08-11T11:14:53.056Z,6.53
2018-08-11T11:17:21.756Z,4.90
2018-08-11T11:19:50.439Z,7.50
2018-08-11T11:22:19.130Z,5.17
2018-08-11T11:24:47.955Z,5.57
2018-08-11T11:27:16.689Z,4.60
2018-08-11T11:29:45.365Z,4.67
2018-08-11T11:32:14.065Z,6.90
2018-08-11T11:34:42.731Z,9.30
2018-08-11T11:37:11.402Z,5.30
2018-08-11T11:39:40.065Z,5.10
2018-08-11T11:42:08.743Z,4.90
2018-08-11T11:44:37.633Z,4.50
2018-08-11T11:47:06.348Z,5.37
2018-08-11T11:49:35.133Z,4.53
2018-08-11T11:52:04.187Z,5.90
2018-08-11T11:54:33.049Z,5.43
2018-08-11T11:57:02.549Z,4.60
2018-08-11T11:59:43.803Z,5.27
2018-08-11T12:02:12.873Z,5.57
2018-08-11T12:04:41.843Z,4.90
2018-08-11T12:07:10.983Z,6.07
2018-08-11T12:09:40.117Z,2.53
2018-08-11T12:12:08.860Z,2.00
2018-08-11T12:14:37.696Z,4.10
2018-08-11T12:17:06.638Z,2.53
2018-08-11T12:19:35.578Z,2.83
2018-08-11T12:22:04.846Z,2.63
2018-08-11T12:24:34.030Z,2.87
2018-08-11T12:27:03.948Z,4.83
2018-08-11T12:29:32.652Z,2.07
2018-08-11T12:32:01.491Z,2.23
2018-08-11T12:34:30.309Z,3.77
2018-08-11T12:36:59.223Z,2.00
2018-08-11T12:39:28.006Z,5.30
2018-08-11T12:41:56.994Z,1.83
2018-08-11T12:44:25.866Z,3.83
2018-08-11T12:46:54.633Z,2.63
2018-08-11T12:49:23.632Z,1.93
2018-08-11T12:51:52.590Z,2.00
2018-08-11T12:54:21.401Z,2.50
2018-08-11T12:56:50.501Z,1.70
2018-08-11T12:59:19.394Z,1.23
2018-08-11T13:01:48.314Z,1.53
2018-08-11T13:04:17.040Z,1.20
2018-08-11T13:06:45.956Z,1.77
2018-08-11T13:09:14.801Z,1.63
2018-08-11T13:11:43.526Z,1.40
2018-08-11T13:14:12.367Z,1.90
2018-08-11T13:16:41.116Z,1.40
2018-08-11T13:19:10.032Z,1.20
2018-08-11T13:21:39.097Z,1.70
2018-08-11T13:24:07.869Z,1.70
2018-08-11T13:26:36.882Z,2.50
2018-08-11T13:29:05.906Z,0.90
2018-08-11T13:31:34.831Z,1.50
2018-08-11T13:34:03.601Z,1.20
2018-08-11T13:36:32.374Z,1.30
2018-08-11T13:39:01.364Z,1.47
2018-08-11T13:41:46.506Z,4.33
2018-08-11T13:44:16.296Z,1.97
2018-08-11T13:46:45.122Z,4.73
2018-08-11T13:49:13.882Z,2.00
2018-08-11T13:51:42.628Z,2.40
2018-08-11T13:54:11.439Z,2.30
2018-08-11T13:56:40.277Z,2.70
2018-08-11T13:59:09.025Z,2.87
2018-08-11T14:01:38.502Z,7.60
2018-08-11T14:04:08.144Z,5.70
2018-08-11T14:06:36.871Z,6.83
2018-08-11T14:09:07.663Z,9.13
2018-08-11T14:11:37.023Z,5.63
2018-08-11T14:14:05.758Z,6.03
2018-08-11T14:16:34.598Z,9.47
2018-08-11T14:19:03.403Z,6.67
2018-08-11T14:21:32.192Z,11.43
2018-08-11T14:24:00.912Z,8.87
2018-08-11T14:26:29.840Z,10.53
2018-08-11T14:28:58.683Z,8.27
2018-08-11T14:31:27.446Z,11.13
2018-08-11T14:33:56.277Z,11.67
2018-08-11T14:36:25.078Z,10.87
2018-08-11T14:38:53.711Z,11.60
2018-08-11T14:41:22.520Z,16.03
2018-08-11T14:43:51.266Z,17.87
2018-08-11T14:46:19.966Z,18.47
2018-08-11T14:48:48.734Z,17.00
2018-08-11T14:51:17.483Z,15.17
2018-08-11T14:53:46.376Z,13.37
2018-08-11T14:56:15.195Z,20.93
2018-08-11T14:58:43.953Z,16.37
2018-08-11T15:01:12.714Z,12.23
2018-08-11T15:03:41.542Z,16.43
2018-08-11T15:06:10.303Z,21.83
2018-08-11T15:08:39.118Z,16.20
2018-08-11T15:11:07.935Z,19.17
2018-08-11T15:13:37.004Z,23.13
2018-08-11T15:16:05.845Z,18.57
2018-08-11T15:18:34.629Z,23.17
2018-08-11T15:21:03.226Z,17.47
2018-08-11T15:26:13.311Z,19.17
2018-08-11T15:28:42.010Z,18.30
2018-08-11T15:31:10.663Z,19.60
2018-08-11T15:33:39.332Z,20.00
2018-08-11T15:36:08.092Z,18.20
2018-08-11T15:38:36.788Z,17.30
2018-08-11T15:41:05.715Z,19.13
2018-08-11T15:43:34.388Z,17.30
2018-08-11T15:46:03.062Z,16.37
2018-08-11T15:48:31.958Z,17.37
2018-08-11T15:51:00.640Z,21.87
2018-08-11T15:53:29.282Z,23.43
2018-08-11T15:55:57.945Z,20.70
2018-08-11T15:58:26.582Z,17.47
2018-08-11T16:00:55.350Z,17.87
2018-08-11T16:03:24.002Z,24.23
2018-08-11T16:05:52.720Z,19.63
2018-08-11T16:08:21.360Z,17.40
2018-08-11T16:10:50.081Z,17.20
2018-08-11T16:13:18.751Z,15.17
2018-08-11T16:15:47.411Z,21.83
2018-08-11T16:18:16.075Z,17.57
2018-08-11T16:20:44.742Z,19.80
2018-08-11T16:23:13.417Z,16.33
2018-08-11T16:25:42.076Z,15.60
2018-08-11T16:28:10.748Z,13.90
2018-08-11T16:30:39.388Z,17.50
2018-08-11T16:33:08.175Z,17.97
2018-08-11T16:35:36.879Z,15.67
2018-08-11T16:38:05.884Z,15.77
2018-08-11T16:40:34.571Z,14.27
2018-08-11T16:43:03.283Z,21.23
2018-08-11T16:45:31.947Z,18.50
2018-08-11T16:48:00.744Z,15.40
2018-08-11T16:50:29.344Z,14.63
2018-08-11T16:52:58.041Z,9.40
2018-08-11T16:55:26.703Z,16.70
2018-08-11T16:57:55.430Z,12.20
2018-08-11T17:00:24.719Z,11.23
2018-08-11T17:02:53.384Z,12.00
2018-08-11T17:05:22.039Z,11.37
2018-08-11T17:07:50.731Z,12.83
2018-08-11T17:10:19.380Z,17.90
2018-08-11T17:12:48.042Z,16.17
2018-08-11T17:15:17.292Z,9.97
2018-08-11T17:17:45.980Z,13.77
2018-08-11T17:20:14.627Z,15.37
2018-08-11T17:22:43.259Z,11.20
2018-08-11T17:25:11.944Z,8.43
2018-08-11T17:27:40.610Z,11.03
2018-08-11T17:30:09.308Z,8.77
2018-08-11T17:32:37.994Z,6.03
2018-08-11T17:35:06.700Z,7.20
2018-08-11T17:37:35.356Z,5.80
2018-08-11T17:40:04.819Z,6.63
2018-08-11T17:42:33.476Z,6.63
2018-08-11T17:45:02.167Z,8.23
2018-08-11T17:47:31.048Z,7.93
2018-08-11T17:49:59.757Z,9.60
2018-08-11T17:52:28.428Z,8.77
2018-08-11T17:54:57.122Z,8.17
2018-08-11T17:57:25.744Z,9.33
2018-08-11T17:59:54.382Z,6.43
2018-08-11T18:02:23.063Z,9.37
2018-08-11T18:04:51.739Z,5.97
2018-08-11T18:07:20.476Z,8.77
2018-08-11T18:09:49.119Z,8.93
2018-08-11T18:12:18.367Z,9.00
2018-08-11T18:14:47.032Z,10.50
2018-08-11T18:17:15.701Z,7.47
2018-08-11T18:19:44.386Z,8.93
2018-08-11T18:22:13.059Z,11.00
2018-08-11T18:24:41.751Z,11.60
2018-08-11T18:27:10.428Z,13.33
2018-08-11T18:29:39.181Z,11.27
2018-08-11T18:32:07.882Z,11.00
2018-08-11T18:34:36.561Z,12.70
2018-08-11T18:37:05.210Z,11.53
2018-08-11T18:39:33.856Z,12.63
2018-08-11T18:42:02.555Z,12.43
2018-08-11T18:44:31.213Z,13.13
2018-08-11T18:46:59.877Z,10.07
2018-08-11T18:49:28.528Z,9.70
2018-08-11T18:51:57.163Z,11.33
2018-08-11T18:54:25.810Z,9.13
2018-08-11T18:56:54.488Z,6.53
2018-08-11T18:59:23.150Z,12.60
2018-08-11T19:01:51.824Z,8.87
2018-08-11T19:04:20.506Z,7.37
2018-08-11T19:06:49.235Z,14.50
2018-08-11T19:09:17.977Z,6.13
2018-08-11T19:11:46.692Z,4.70
2018-08-11T19:14:15.303Z,6.57
2018-08-11T19:16:43.983Z,6.17
2018-08-11T19:19:12.720Z,8.83
2018-08-11T19:21:41.474Z,7.50
2018-08-11T19:24:10.238Z,4.97
2018-08-11T19:26:38.920Z,5.37
2018-08-11T19:29:07.627Z,7.50
2018-08-11T19:31:36.348Z,7.80
2018-08-11T19:34:05.089Z,4.70
2018-08-11T19:36:33.775Z,4.50
2018-08-11T19:39:02.498Z,8.80
2018-08-11T19:41:31.209Z,6.53
2018-08-11T19:43:59.885Z,6.37
2018-08-11T19:46:28.681Z,5.70
2018-08-11T19:48:57.275Z,3.73
2018-08-11T19:51:25.999Z,4.43
2018-08-11T19:53:54.732Z,3.67
2018-08-11T19:56:23.424Z,4.17
2018-08-11T19:58:52.163Z,4.17
2018-08-11T20:01:20.907Z,3.30
2018-08-11T20:03:49.577Z,3.23
2018-08-11T20:06:18.230Z,3.50
2018-08-11T20:08:46.941Z,4.07
2018-08-11T20:11:16.588Z,7.17
2018-08-11T20:13:45.323Z,5.83
2018-08-11T20:16:13.979Z,4.53
2018-08-11T20:18:42.671Z,4.63
2018-08-11T20:21:11.323Z,4.83
2018-08-11T20:23:39.964Z,3.27
2018-08-11T20:26:08.720Z,2.90
2018-08-11T20:28:37.429Z,4.17
2018-08-11T20:31:06.204Z,2.83
2018-08-11T20:33:35.019Z,3.60
2018-08-11T20:36:03.715Z,3.30
2018-08-11T20:38:32.399Z,4.00
2018-08-11T20:41:01.228Z,4.13
2018-08-11T20:43:29.977Z,2.30
2018-08-11T20:45:58.680Z,3.43
2018-08-11T20:48:27.419Z,2.70
2018-08-11T20:50:56.110Z,2.33
2018-08-11T20:53:24.824Z,2.20
2018-08-11T20:55:53.504Z,2.03
2018-08-11T20:58:22.188Z,2.67
2018-08-11T21:00:50.899Z,2.50
2018-08-11T21:03:19.641Z,2.40
2018-08-11T21:05:48.370Z,1.87
2018-08-11T21:08:17.084Z,2.77
2018-08-11T21:10:45.792Z,1.90
2018-08-11T21:13:14.504Z,1.70
2018-08-11T21:15:43.267Z,1.60
2018-08-11T21:18:11.960Z,2.00
2018-08-11T21:20:40.694Z,1.57
2018-08-11T21:23:09.357Z,1.53
2018-08-11T21:25:38.069Z,1.20
2018-08-11T21:28:06.840Z,1.20
2018-08-11T21:30:35.555Z,1.63
2018-08-11T21:33:04.302Z,2.43
2018-08-11T21:35:33.047Z,1.00
2018-08-11T21:38:01.738Z,1.23
2018-08-11T21:40:30.530Z,1.00
2018-08-11T21:42:59.265Z,0.70
2018-08-11T21:45:27.947Z,0.97
2018-08-11T21:47:56.623Z,0.77
2018-08-11T21:50:25.291Z,1.60
2018-08-11T21:52:54.014Z,1.43
2018-08-11T21:55:22.680Z,1.20
2018-08-11T21:57:51.372Z,4.10
2018-08-11T22:00:29.577Z,1.03
2018-08-11T22:02:58.877Z,0.83
2018-08-11T22:05:28.031Z,1.13
2018-08-11T22:07:57.617Z,0.73
2018-08-11T22:10:26.608Z,0.80
2018-08-11T22:12:55.313Z,1.47
2018-08-11T22:15:24.191Z,2.17
2018-08-11T22:17:53.849Z,0.90
2018-08-11T22:20:22.592Z,0.93
2018-08-11T22:22:51.279Z,1.03
2018-08-11T22:25:20.064Z,1.57
2018-08-11T22:27:48.783Z,1.17
2018-08-11T22:30:17.503Z,2.00
2018-08-11T22:32:46.260Z,0.93
2018-08-11T22:35:14.923Z,1.30
2018-08-11T22:37:43.603Z,2.43
2018-08-11T22:40:12.330Z,1.17
2018-08-11T22:42:41.047Z,1.23
2018-08-11T22:45:11.296Z,4.60
2018-08-11T22:47:40.166Z,2.20
2018-08-11T22:50:12.353Z,4.83
2018-08-11T22:52:41.060Z,2.33
2018-08-11T22:55:09.865Z,3.37
2018-08-11T22:57:38.660Z,1.57
2018-08-11T23:00:11.543Z,1.83
2018-08-11T23:02:40.260Z,3.20
2018-08-11T23:05:09.129Z,1.40
2018-08-11T23:07:38.059Z,1.57
2018-08-11T23:10:08.341Z,1.93
2018-08-11T23:12:37.043Z,3.03
2018-08-11T23:15:07.040Z,2.30
2018-08-11T23:17:35.674Z,4.87
2018-08-11T23:20:04.498Z,2.10
2018-08-11T23:22:33.200Z,1.33
2018-08-11T23:25:01.900Z,2.23
2018-08-11T23:27:30.608Z,3.03
2018-08-11T23:29:59.295Z,2.63
2018-08-11T23:32:27.991Z,1.37
2018-08-11T23:34:56.853Z,1.30
2018-08-11T23:37:25.633Z,1.63
2018-08-11T23:39:54.343Z,1.67
2018-08-11T23:42:23.083Z,1.10
2018-08-11T23:44:51.781Z,2.20
2018-08-11T23:47:20.449Z,2.10
2018-08-11T23:49:49.140Z,2.47
2018-08-11T23:52:17.820Z,3.13
2018-08-11T23:54:46.492Z,3.40
2018-08-11T23:57:15.232Z,1.80
2018-08-11T23:59:43.895Z,1.73
